Time;durP1;ratioP1;P1;durP2;ratioP2;P2;SDS_P1;SDS_P2;PMS_P1;PMS_P2;Temp;Humidity;BMP_temperature;BMP_pressure;BME280_temperature;BME280_humidity;BME280_pressure;Samples;Min_cycle;Max_cycle;Signal;HPM_P1;HPM_P2
2022/04/05 04:00:37;;;;;;;2.45;1.52;;;5.10;99.90;;;;;;5772314;23;20241;-70
2022/04/05 04:03:04;;;;;;;3.40;0.90;;;5.10;99.90;;;;;;4933576;29;20206;-70
2022/04/05 04:05:31;;;;;;;3.53;1.35;;;5.10;99.90;;;;;;4936595;29;20321;-69
2022/04/05 04:07:57;;;;;;;1.48;1.40;;;5.00;99.90;;;;;;4936440;29;20233;-69
2022/04/05 04:10:24;;;;;;;6.25;1.10;;;5.00;99.90;;;;;;4935882;29;20265;-70
2022/04/05 04:12:51;;;;;;;6.82;1.50;;;5.00;99.90;;;;;;4936320;29;20214;-70
2022/04/05 04:15:17;;;;;;;2.78;1.65;;;4.90;99.90;;;;;;4927146;29;20221;-69
2022/04/05 04:17:45;;;;;;;1.75;1.45;;;4.90;99.90;;;;;;4936182;29;20203;-70
2022/04/05 04:20:12;;;;;;;2.45;2.30;;;4.80;99.90;;;;;;4935174;29;20223;-70
2022/04/05 04:22:39;;;;;;;7.50;2.30;;;4.80;99.90;;;;;;4936121;29;20206;-70
2022/04/05 04:25:06;;;;;;;2.60;1.20;;;4.80;99.90;;;;;;4930176;29;20206;-70
2022/04/05 04:27:34;;;;;;;1.48;1.00;;;4.80;99.90;;;;;;4917434;29;20230;-70
2022/04/05 04:30:01;;;;;;;2.55;1.25;;;4.70;99.90;;;;;;4921317;29;20285;-69
2022/04/05 04:32:28;;;;;;;2.97;1.35;;;4.70;99.90;;;;;;4936210;29;20285;-70
2022/04/05 04:34:56;;;;;;;3.95;1.25;;;4.70;99.90;;;;;;4935778;29;20202;-69
2022/04/05 04:37:22;;;;;;;1.92;1.83;;;4.60;99.90;;;;;;4935312;29;20214;-71
2022/04/05 04:39:50;;;;;;;2.38;1.40;;;4.70;99.90;;;;;;4937661;29;20214;-70
2022/04/05 04:42:16;;;;;;;4.15;1.38;;;4.60;99.90;;;;;;4937419;29;20237;-70
2022/04/05 04:44:43;;;;;;;4.80;1.45;;;4.60;99.90;;;;;;4936557;29;20261;-71
2022/04/05 04:47:10;;;;;;;7.88;1.60;;;4.60;99.90;;;;;;4918979;29;20824;-70
2022/04/05 04:49:36;;;;;;;2.63;1.60;;;4.60;99.90;;;;;;4928174;29;20221;-70
2022/04/05 04:52:05;;;;;;;4.60;1.52;;;4.60;99.90;;;;;;4918018;29;20282;-70
2022/04/05 04:54:31;;;;;;;3.75;1.30;;;4.60;99.90;;;;;;4924606;29;20236;-70
2022/04/05 04:56:58;;;;;;;6.20;1.45;;;4.60;99.90;;;;;;4935075;29;20293;-70
2022/04/05 04:59:25;;;;;;;3.13;1.10;;;4.60;99.90;;;;;;4935261;29;20213;-70
2022/04/05 05:01:51;;;;;;;3.35;1.55;;;4.60;99.90;;;;;;4934181;29;20383;-70
2022/04/05 05:04:18;;;;;;;2.28;1.27;;;4.60;99.90;;;;;;4930109;29;20222;-70
2022/04/05 05:06:45;;;;;;;1.67;1.33;;;4.70;99.90;;;;;;4929047;29;20662;-69
2022/04/05 05:09:13;;;;;;;4.35;1.50;;;4.70;99.90;;;;;;4939545;29;20222;-70
2022/04/05 05:11:39;;;;;;;5.07;1.73;;;4.70;99.90;;;;;;4933747;29;20233;-70
2022/04/05 05:14:06;;;;;;;1.05;1.00;;;4.80;99.90;;;;;;4935628;29;20536;-70
2022/04/05 05:16:34;;;;;;;3.83;1.23;;;4.80;99.90;;;;;;4929261;29;20207;-70
2022/04/05 05:19:01;;;;;;;4.30;1.50;;;4.80;99.90;;;;;;4916499;29;20203;-70
2022/04/05 05:21:27;;;;;;;1.75;1.42;;;4.80;99.90;;;;;;4925145;29;20230;-70
2022/04/05 05:23:54;;;;;;;6.22;1.70;;;4.80;99.90;;;;;;4935334;29;20218;-69
2022/04/05 05:26:22;;;;;;;4.53;1.60;;;4.80;99.90;;;;;;4934854;29;20201;-69
2022/04/05 05:28:49;;;;;;;9.45;2.10;;;4.90;99.90;;;;;;4934995;29;20653;-70
2022/04/05 05:31:16;;;;;;;9.35;1.40;;;5.00;99.90;;;;;;4933409;29;20666;-69
2022/04/05 05:33:42;;;;;;;8.52;1.30;;;5.00;99.90;;;;;;4935139;29;20225;-69
2022/04/05 05:36:09;;;;;;;2.78;0.90;;;5.00;99.90;;;;;;4934156;29;20209;-69
2022/04/05 05:38:36;;;;;;;2.55;1.20;;;5.00;99.90;;;;;;4934625;29;20209;-69
2022/04/05 05:41:02;;;;;;;4.65;1.08;;;5.10;99.90;;;;;;4933430;29;20257;-69
2022/04/05 05:43:31;;;;;;;1.38;0.70;;;5.10;99.90;;;;;;4934984;29;20668;-69
2022/04/05 05:45:58;;;;;;;5.28;1.38;;;5.10;99.90;;;;;;4933735;29;20278;-69
2022/04/05 05:48:24;;;;;;;7.72;1.27;;;5.10;99.90;;;;;;4934805;29;20234;-69
2022/04/05 05:50:51;;;;;;;8.68;2.65;;;5.10;99.90;;;;;;4933335;29;20225;-69
2022/04/05 05:53:18;;;;;;;2.92;1.40;;;5.10;99.90;;;;;;4930828;29;20222;-69
2022/04/05 05:55:44;;;;;;;4.15;1.45;;;5.20;99.90;;;;;;4934416;29;20206;-69
2022/04/05 05:58:11;;;;;;;3.22;1.45;;;5.20;99.90;;;;;;4934704;29;20585;-69
2022/04/05 06:00:39;;;;;;;1.10;0.82;;;5.20;99.90;;;;;;4928503;29;20231;-69
2022/04/05 06:03:07;;;;;;;1.30;1.20;;;5.30;99.90;;;;;;4938259;29;20205;-69
2022/04/05 06:05:33;;;;;;;3.67;1.50;;;5.30;99.90;;;;;;4933920;29;20202;-69
2022/04/05 06:08:00;;;;;;;2.78;1.55;;;5.30;99.90;;;;;;4934583;29;20237;-69
2022/04/05 06:10:27;;;;;;;4.38;1.00;;;5.30;99.90;;;;;;4933672;29;20285;-69
2022/04/05 06:12:56;;;;;;;2.05;1.50;;;5.30;99.90;;;;;;4934780;29;20206;-69
2022/04/05 06:15:25;;;;;;;4.55;1.10;;;5.40;99.90;;;;;;4929232;29;20285;-69
2022/04/05 06:17:53;;;;;;;5.40;1.17;;;5.40;99.90;;;;;;4945831;28;20716;-69
2022/04/05 06:20:22;;;;;;;2.53;1.38;;;5.40;99.90;;;;;;4936920;28;20206;-69
2022/04/05 06:22:50;;;;;;;4.78;1.20;;;5.50;99.90;;;;;;4924157;29;20246;-69
2022/04/05 06:25:18;;;;;;;2.05;1.23;;;5.50;99.90;;;;;;4924617;29;20616;-68
2022/04/05 06:27:45;;;;;;;2.58;1.10;;;5.60;99.90;;;;;;4934214;29;20241;-68
2022/04/05 06:30:14;;;;;;;3.50;1.08;;;5.60;99.90;;;;;;4932371;29;20218;-68
2022/04/05 06:32:41;;;;;;;1.42;0.98;;;5.70;99.90;;;;;;4934180;29;20679;-68
2022/04/05 06:35:11;;;;;;;5.18;1.60;;;5.70;99.90;;;;;;4933517;29;20205;-68
2022/04/05 06:37:41;;;;;;;3.65;1.50;;;5.80;99.90;;;;;;4934137;29;20277;-68
2022/04/05 06:40:08;;;;;;;1.52;1.30;;;5.90;99.90;;;;;;4933485;29;20202;-69
2022/04/05 06:42:41;;;;;;;8.02;2.35;;;5.90;99.90;;;;;;4934040;29;20639;-69
2022/04/05 06:45:09;;;;;;;6.47;1.95;;;6.00;99.90;;;;;;4932420;29;20205;-69
2022/04/05 06:47:37;;;;;;;4.18;1.63;;;6.00;99.90;;;;;;4933857;29;20206;-68
2022/04/05 06:50:05;;;;;;;1.75;1.50;;;6.10;99.90;;;;;;4931775;29;20212;-68
2022/04/05 06:52:33;;;;;;;2.17;1.70;;;6.10;99.90;;;;;;4933254;29;20226;-68
2022/04/05 06:54:59;;;;;;;1.60;1.10;;;6.20;99.90;;;;;;4933652;29;20652;-68
2022/04/05 06:57:26;;;;;;;1.00;1.00;;;6.20;99.90;;;;;;4933610;29;20221;-68
2022/04/05 06:59:53;;;;;;;2.65;1.52;;;6.30;99.90;;;;;;4932363;29;20217;-68
2022/04/05 07:02:19;;;;;;;3.45;1.05;;;6.40;99.90;;;;;;4933271;29;20296;-68
2022/04/05 07:04:46;;;;;;;3.42;0.95;;;6.40;99.90;;;;;;4933638;29;20206;-68
2022/04/05 07:07:13;;;;;;;2.90;1.15;;;6.50;99.90;;;;;;4933459;29;20210;-68
2022/04/05 07:09:41;;;;;;;2.13;1.00;;;6.60;99.90;;;;;;4932592;29;20375;-68
2022/04/05 07:12:08;;;;;;;2.85;1.40;;;6.70;99.90;;;;;;4933455;29;20230;-68
2022/04/05 07:14:35;;;;;;;1.85;0.90;;;6.70;99.90;;;;;;4920263;29;20213;-68
2022/04/05 07:17:02;;;;;;;2.22;1.30;;;6.80;99.90;;;;;;4932883;29;20265;-68
2022/04/05 07:19:28;;;;;;;2.28;1.13;;;6.90;99.90;;;;;;4930046;29;20578;-68
2022/04/05 07:21:55;;;;;;;4.43;2.88;;;7.00;99.90;;;;;;4935603;29;20387;-69
2022/04/05 07:24:22;;;;;;;5.75;1.30;;;7.10;99.90;;;;;;4928774;29;20214;-68
2022/04/05 07:26:50;;;;;;;5.88;1.85;;;7.10;99.90;;;;;;4928043;29;20218;-69
2022/04/05 07:29:17;;;;;;;10.90;2.70;;;7.00;99.90;;;;;;4926942;29;20225;-68
2022/04/05 07:31:43;;;;;;;7.40;2.72;;;7.00;99.90;;;;;;4930196;29;20291;-68
2022/04/05 07:34:10;;;;;;;15.32;4.57;;;7.00;99.90;;;;;;4937557;28;20228;-68
2022/04/05 07:36:37;;;;;;;3.47;3.15;;;7.00;99.90;;;;;;4937821;29;20220;-69
2022/04/05 07:39:04;;;;;;;6.35;3.75;;;7.20;99.90;;;;;;4937065;29;20214;-69
2022/04/05 07:41:30;;;;;;;5.68;1.40;;;7.20;99.90;;;;;;4931308;29;20234;-69
2022/04/05 07:43:58;;;;;;;7.93;2.72;;;7.30;99.90;;;;;;4939028;29;20209;-69
2022/04/05 07:46:25;;;;;;;4.25;1.38;;;7.30;99.90;;;;;;4928631;28;20218;-69
2022/04/05 07:48:52;;;;;;;6.13;2.00;;;7.30;99.90;;;;;;4934488;29;20225;-69
2022/04/05 07:51:19;;;;;;;1.40;1.30;;;7.30;99.90;;;;;;4922726;29;20609;-68
2022/04/05 07:53:46;;;;;;;7.57;1.60;;;7.40;99.90;;;;;;4931792;29;20278;-69
2022/04/05 07:56:13;;;;;;;10.30;2.40;;;7.60;99.90;;;;;;4925300;29;20309;-69
2022/04/05 07:58:40;;;;;;;3.60;1.35;;;7.80;99.90;;;;;;4927617;29;20214;-69
2022/04/05 08:01:09;;;;;;;5.68;1.83;;;7.80;99.90;;;;;;4934168;29;20242;-69
2022/04/05 08:03:36;;;;;;;6.38;2.88;;;7.70;99.90;;;;;;4932789;29;20214;-69
2022/04/05 08:06:03;;;;;;;3.88;1.33;;;7.80;99.90;;;;;;4928566;29;20257;-69
2022/04/05 08:08:30;;;;;;;2.65;1.25;;;7.70;99.90;;;;;;4923698;29;20229;-69
2022/04/05 08:10:56;;;;;;;1.75;1.20;;;7.70;99.90;;;;;;4928967;29;20237;-69
2022/04/05 08:13:23;;;;;;;3.67;1.98;;;7.60;99.90;;;;;;4934688;29;20214;-69
2022/04/05 08:15:50;;;;;;;1.75;1.35;;;7.60;99.90;;;;;;4933723;29;20206;-69
2022/04/05 08:18:19;;;;;;;3.17;1.15;;;7.60;99.90;;;;;;4935957;29;20209;-69
2022/04/05 08:20:46;;;;;;;5.63;1.60;;;7.60;99.90;;;;;;4939085;29;20221;-70
2022/04/05 08:23:13;;;;;;;1.85;1.40;;;7.60;99.90;;;;;;4937585;28;20205;-68
2022/04/05 08:25:39;;;;;;;2.38;1.75;;;7.70;99.90;;;;;;4929115;29;20210;-69
2022/04/05 08:28:07;;;;;;;3.05;0.88;;;7.70;99.90;;;;;;4935761;29;20217;-69
2022/04/05 08:30:34;;;;;;;3.85;1.38;;;7.80;99.90;;;;;;4932759;29;20597;-69
2022/04/05 08:33:01;;;;;;;2.65;1.33;;;7.80;99.90;;;;;;4931530;29;20207;-68
2022/04/05 08:35:29;;;;;;;1.02;1.00;;;7.90;99.90;;;;;;4934451;29;20292;-68
2022/04/05 08:37:56;;;;;;;1.05;1.05;;;8.10;99.90;;;;;;4946818;28;20312;-69
2022/04/05 08:40:25;;;;;;;6.07;2.20;;;8.20;99.90;;;;;;4932144;29;20221;-69
2022/04/05 08:42:54;;;;;;;1.15;0.80;;;8.40;99.90;;;;;;4930807;29;20225;-68
2022/04/05 08:45:23;;;;;;;6.15;1.90;;;8.50;99.90;;;;;;4927889;29;20211;-69
2022/04/05 08:47:53;;;;;;;0.98;0.88;;;8.40;99.90;;;;;;4933025;29;20238;-69
2022/04/05 08:50:21;;;;;;;1.98;0.80;;;8.40;99.90;;;;;;4934625;29;20226;-69
2022/04/05 08:52:50;;;;;;;0.75;0.63;;;8.50;99.90;;;;;;4928172;29;20206;-69
2022/04/05 08:55:18;;;;;;;4.68;0.75;;;8.50;99.90;;;;;;4932663;29;20202;-69
2022/04/05 08:57:45;;;;;;;1.02;1.00;;;8.60;99.90;;;;;;4929048;29;20205;-69
2022/04/05 09:00:14;;;;;;;1.10;0.90;;;8.60;99.90;;;;;;4933514;29;20214;-68
2022/04/05 09:02:56;;;;;;;0.50;0.50;;;8.60;99.90;;;;;;4932066;29;20254;-69
2022/04/05 09:05:28;;;;;;;1.20;0.60;;;8.60;99.90;;;;;;4934261;29;20356;-69
2022/04/05 09:08:12;;;;;;;2.53;1.00;;;8.70;99.90;;;;;;4934883;28;20289;-69
2022/04/05 09:10:39;;;;;;;5.57;1.40;;;8.90;99.90;;;;;;4933110;29;20228;-70
2022/04/05 09:13:09;;;;;;;0.85;0.85;;;8.90;99.90;;;;;;4933115;29;20214;-70
2022/04/05 09:15:37;;;;;;;1.02;0.80;;;9.00;99.90;;;;;;4929277;29;20274;-69
2022/04/05 09:18:05;;;;;;;2.17;1.00;;;9.10;99.90;;;;;;4933728;29;20198;-69
2022/04/05 09:20:43;;;;;;;1.95;0.88;;;9.10;99.90;;;;;;4934328;29;20778;-69
2022/04/05 09:23:23;;;;;;;0.68;0.68;;;9.30;99.90;;;;;;4935070;28;20209;-69
2022/04/05 09:25:54;;;;;;;1.58;1.13;;;9.40;99.90;;;;;;4931037;29;20193;-69
2022/04/05 09:28:27;;;;;;;2.28;0.82;;;9.40;99.90;;;;;;4935592;29;20300;-69
2022/04/05 09:30:57;;;;;;;1.85;0.93;;;9.50;99.90;;;;;;4932046;29;20406;-69
2022/04/05 09:33:24;;;;;;;2.58;0.80;;;9.50;99.90;;;;;;4925783;29;20570;-69
2022/04/05 09:36:03;;;;;;;0.82;0.80;;;9.50;99.90;;;;;;4922700;29;20581;-69
2022/04/05 09:38:31;;;;;;;3.25;0.77;;;9.50;99.90;;;;;;4933115;29;20295;-69
2022/04/05 09:41:10;;;;;;;2.72;1.15;;;9.60;99.90;;;;;;4924686;29;20275;-69
2022/04/05 09:43:37;;;;;;;1.90;1.08;;;9.70;99.90;;;;;;4930639;29;20609;-69
2022/04/05 09:46:05;;;;;;;1.08;1.08;;;9.60;99.90;;;;;;4928874;29;20241;-69
2022/04/05 09:48:35;;;;;;;2.38;0.80;;;9.50;99.90;;;;;;4932446;29;20305;-70
2022/04/05 09:51:05;;;;;;;5.10;1.10;;;9.50;99.90;;;;;;4927062;29;20294;-69
2022/04/05 09:53:47;;;;;;;3.67;1.75;;;9.50;99.90;;;;;;4929006;29;20265;-69
2022/04/05 09:56:16;;;;;;;1.70;0.90;;;9.50;99.90;;;;;;4932130;29;20265;-69
2022/04/05 09:58:50;;;;;;;4.40;2.42;;;9.50;99.90;;;;;;4933934;29;20269;-69
2022/04/05 10:01:18;;;;;;;4.85;1.90;;;9.60;99.90;;;;;;4932849;29;20664;-69
2022/04/05 10:03:57;;;;;;;4.95;1.65;;;9.60;99.90;;;;;;4933127;29;20214;-69
2022/04/05 10:06:24;;;;;;;1.60;1.52;;;9.60;99.90;;;;;;4933227;29;20300;-69
2022/04/05 10:08:55;;;;;;;1.52;1.40;;;9.60;99.90;;;;;;4928042;29;20297;-69
2022/04/05 10:11:23;;;;;;;1.23;1.20;;;9.70;99.90;;;;;;4933393;29;20233;-69
2022/04/05 10:13:50;;;;;;;4.53;1.92;;;10.00;99.90;;;;;;4931683;28;20258;-69
2022/04/05 10:16:19;;;;;;;5.78;1.85;;;10.10;99.90;;;;;;4928957;29;20210;-69
2022/04/05 10:18:48;;;;;;;1.75;1.58;;;10.20;99.90;;;;;;4925295;29;20214;-69
2022/04/05 10:21:16;;;;;;;1.75;1.65;;;10.20;99.90;;;;;;4924861;28;20733;-69
2022/04/05 10:23:44;;;;;;;2.38;2.00;;;10.30;99.90;;;;;;4924571;29;20222;-69
2022/04/05 10:26:15;;;;;;;3.03;1.70;;;10.40;99.90;;;;;;4923794;29;20289;-69
2022/04/05 10:28:45;;;;;;;4.13;1.97;;;10.50;99.90;;;;;;4932550;29;20493;-69
2022/04/05 10:31:17;;;;;;;2.10;1.57;;;10.50;99.90;;;;;;4931804;29;20489;-69
2022/04/05 10:33:53;;;;;;;3.80;2.15;;;10.50;99.90;;;;;;4926152;29;20465;-69
2022/04/05 10:36:23;;;;;;;3.10;2.10;;;10.50;99.90;;;;;;4930590;29;20216;-69
2022/04/05 10:39:14;;;;;;;3.70;1.20;;;10.50;99.90;;;;;;4945211;29;20210;-69
2022/04/05 10:41:43;;;;;;;1.60;1.55;;;10.30;99.90;;;;;;4913651;29;20486;-69
2022/04/05 10:44:27;;;;;;;4.03;1.88;;;10.20;99.90;;;;;;4916979;29;20605;-70
2022/04/05 10:46:58;;;;;;;1.33;1.10;;;10.10;99.90;;;;;;4931127;29;20197;-69
2022/04/05 10:49:41;;;;;;;2.50;1.55;;;9.90;99.90;;;;;;4923687;29;20226;-69
2022/04/05 10:52:13;;;;;;;2.67;1.77;;;9.60;99.90;;;;;;4927305;29;20230;-69
2022/04/05 10:54:42;;;;;;;1.40;1.30;;;9.50;99.90;;;;;;4926931;29;20202;-69
2022/04/05 10:57:29;;;;;;;1.60;1.38;;;9.40;99.90;;;;;;4932184;29;20283;-69
2022/04/05 11:00:02;;;;;;;1.52;1.33;;;9.60;99.90;;;;;;4925640;29;20202;-69
2022/04/05 11:02:30;;;;;;;1.90;1.80;;;9.70;99.90;;;;;;4922938;29;20239;-68
2022/04/05 11:05:02;;;;;;;2.20;2.00;;;9.80;99.90;;;;;;4937091;29;20206;-69
2022/04/05 11:07:29;;;;;;;6.38;2.60;;;9.80;99.90;;;;;;4932969;29;20271;-68
2022/04/05 11:10:00;;;;;;;1.73;1.63;;;9.90;99.90;;;;;;4928452;29;20222;-69
2022/04/05 11:12:30;;;;;;;2.97;2.20;;;10.00;99.90;;;;;;4928028;29;20250;-68
2022/04/05 11:14:59;;;;;;;4.03;2.40;;;10.10;99.90;;;;;;4920105;29;20202;-68
2022/04/05 11:17:27;;;;;;;2.88;2.05;;;10.20;99.90;;;;;;4915554;29;20554;-68
2022/04/05 11:19:55;;;;;;;2.08;1.85;;;10.10;99.90;;;;;;4916445;29;20293;-68
2022/04/05 11:22:31;;;;;;;1.98;1.85;;;9.90;99.90;;;;;;4932336;29;20242;-69
2022/04/05 11:25:00;;;;;;;4.57;1.95;;;9.80;99.90;;;;;;4931557;29;20209;-69
2022/04/05 11:27:31;;;;;;;2.15;1.48;;;9.70;99.90;;;;;;4931584;29;20228;-69
2022/04/05 11:30:37;;;;;;;2.85;2.13;;;9.60;99.90;;;;;;4931218;29;20249;-69
2022/04/05 11:33:45;;;;;;;2.55;2.33;;;9.50;99.90;;;;;;4922736;29;20194;-69
2022/04/05 11:36:14;;;;;;;2.00;1.90;;;9.30;99.90;;;;;;4931673;29;20245;-69
2022/04/05 11:38:43;;;;;;;2.95;1.98;;;9.30;99.90;;;;;;4930796;29;20234;-69
2022/04/05 11:41:20;;;;;;;1.98;1.80;;;9.30;99.90;;;;;;4927993;29;20222;-70
2022/04/05 11:43:50;;;;;;;2.95;2.13;;;9.20;99.90;;;;;;4922094;29;20213;-69
2022/04/05 11:46:19;;;;;;;2.10;2.00;;;9.10;99.90;;;;;;4931892;29;20667;-69
2022/04/05 11:48:48;;;;;;;1.98;1.88;;;8.90;99.90;;;;;;4926315;29;20644;-69
2022/04/05 11:51:17;;;;;;;4.22;2.30;;;8.80;99.90;;;;;;4931924;29;20237;-68
2022/04/05 11:53:46;;;;;;;2.65;2.55;;;8.70;99.90;;;;;;4928155;29;20250;-69
2022/04/05 11:56:17;;;;;;;2.95;2.85;;;8.70;99.90;;;;;;4918140;29;20218;-69
2022/04/05 11:58:46;;;;;;;5.38;3.13;;;8.70;99.90;;;;;;4933950;29;20201;-69
2022/04/05 12:01:16;;;;;;;3.15;2.60;;;8.60;99.90;;;;;;4920951;28;20337;-69
2022/04/05 12:03:46;;;;;;;2.40;1.98;;;8.50;99.90;;;;;;4925390;29;20229;-68
2022/04/05 12:06:13;;;;;;;2.38;2.17;;;8.30;99.90;;;;;;4931068;28;20211;-68
2022/04/05 12:08:40;;;;;;;2.33;2.15;;;8.20;99.90;;;;;;4927696;29;20305;-69
2022/04/05 12:11:09;;;;;;;2.00;2.00;;;8.30;99.90;;;;;;4935204;29;20746;-69
2022/04/05 12:13:37;;;;;;;2.80;2.60;;;8.30;99.90;;;;;;4933665;29;20240;-69
2022/04/05 12:16:06;;;;;;;2.50;2.33;;;8.50;99.90;;;;;;4927046;29;20400;-69
2022/04/05 12:18:34;;;;;;;3.95;3.13;;;8.60;99.90;;;;;;4933795;29;20293;-69
2022/04/05 12:21:02;;;;;;;2.80;2.70;;;8.80;99.90;;;;;;4924278;29;20266;-69
2022/04/05 12:23:34;;;;;;;2.97;2.40;;;9.00;99.90;;;;;;4935722;29;20210;-69
2022/04/05 12:26:06;;;;;;;3.20;2.88;;;9.00;99.90;;;;;;4935827;29;20273;-69
2022/04/05 12:28:33;;;;;;;4.78;3.30;;;9.10;99.90;;;;;;4935988;29;20213;-68
2022/04/05 12:31:11;;;;;;;2.40;2.33;;;9.10;99.90;;;;;;4935008;29;20260;-69
2022/04/05 12:33:41;;;;;;;4.38;2.30;;;9.10;99.90;;;;;;4936104;29;20217;-69
2022/04/05 12:36:08;;;;;;;3.38;2.45;;;9.10;99.90;;;;;;4933395;29;20646;-69
2022/04/05 12:38:37;;;;;;;3.22;2.67;;;9.10;99.90;;;;;;4935485;29;20266;-69
2022/04/05 12:41:04;;;;;;;3.75;3.45;;;9.10;99.90;;;;;;4935106;29;20321;-69
2022/04/05 12:43:30;;;;;;;7.63;4.47;;;9.10;99.90;;;;;;4935678;29;20275;-68
2022/04/05 12:46:09;;;;;;;5.35;4.75;;;9.10;99.90;;;;;;4936347;29;20214;-69
2022/04/05 12:48:36;;;;;;;4.63;4.22;;;9.10;99.90;;;;;;4935862;29;20194;-69
2022/04/05 12:51:04;;;;;;;4.05;3.75;;;9.30;99.90;;;;;;4935194;29;20320;-69
2022/04/05 12:53:35;;;;;;;7.47;4.82;;;9.30;99.90;;;;;;4928275;29;20681;-68
2022/04/05 12:56:08;;;;;;;4.40;4.10;;;9.40;99.90;;;;;;4935540;29;20583;-68
2022/04/05 12:58:44;;;;;;;2.60;2.40;;;9.30;99.90;;;;;;4934669;29;20206;-69
2022/04/05 13:01:22;;;;;;;3.88;3.30;;;9.10;99.90;;;;;;4934502;29;20282;-69
2022/04/05 13:03:56;;;;;;;2.83;2.72;;;9.00;99.90;;;;;;4935313;29;20214;-69
2022/04/05 13:06:28;;;;;;;3.05;2.40;;;9.00;99.90;;;;;;4935083;29;20265;-69
2022/04/05 13:09:09;;;;;;;4.05;3.65;;;9.10;99.90;;;;;;4931823;29;20778;-69
2022/04/05 13:11:37;;;;;;;6.28;3.47;;;9.10;99.90;;;;;;4938739;29;20310;-69
2022/04/05 13:14:06;;;;;;;6.55;4.88;;;9.10;99.90;;;;;;4940302;29;20265;-69
2022/04/05 13:16:33;;;;;;;5.93;4.22;;;9.00;99.90;;;;;;4936569;29;20323;-69
2022/04/05 13:19:08;;;;;;;4.97;3.47;;;8.90;99.90;;;;;;4936606;29;20527;-69
2022/04/05 13:21:45;;;;;;;6.78;3.72;;;8.90;99.90;;;;;;4934149;29;20799;-69
2022/04/05 13:24:12;;;;;;;3.50;3.30;;;8.80;99.90;;;;;;4930919;29;20213;-69
2022/04/05 13:26:41;;;;;;;4.22;3.83;;;8.80;99.90;;;;;;4920124;29;20553;-69
2022/04/05 13:29:10;;;;;;;3.42;3.10;;;8.80;99.90;;;;;;4916123;29;20210;-69
2022/04/05 13:31:42;;;;;;;5.10;3.72;;;8.80;99.90;;;;;;4918538;29;20706;-69
2022/04/05 13:34:10;;;;;;;3.17;2.88;;;8.90;99.90;;;;;;4934779;29;20289;-69
2022/04/05 13:36:36;;;;;;;4.68;2.80;;;8.80;99.90;;;;;;4934558;29;20990;-69
2022/04/05 13:39:05;;;;;;;2.63;2.35;;;8.80;99.90;;;;;;4934595;29;20337;-69
2022/04/05 13:41:33;;;;;;;2.97;2.33;;;8.80;99.90;;;;;;4930058;29;20606;-69
2022/04/05 13:44:00;;;;;;;3.15;2.85;;;8.90;99.90;;;;;;4920216;29;20213;-68
2022/04/05 13:46:28;;;;;;;2.97;2.83;;;8.90;99.90;;;;;;4930203;29;20215;-68
2022/04/05 13:48:55;;;;;;;3.03;2.83;;;8.90;99.90;;;;;;4926563;29;20233;-69
2022/04/05 13:51:23;;;;;;;2.50;2.30;;;8.90;99.90;;;;;;4918172;29;20230;-68
2022/04/05 13:53:49;;;;;;;2.78;2.67;;;8.90;99.90;;;;;;4928236;29;20206;-68
2022/04/05 13:56:18;;;;;;;4.75;3.30;;;8.90;99.90;;;;;;4932534;29;20234;-69
2022/04/05 13:58:44;;;;;;;3.65;3.05;;;8.90;99.90;;;;;;4939336;29;20240;-68
2022/04/05 14:01:11;;;;;;;4.55;3.25;;;9.00;99.90;;;;;;4924132;28;20233;-68
2022/04/05 14:03:38;;;;;;;3.63;3.33;;;9.00;99.90;;;;;;4928678;29;20214;-68
2022/04/05 14:06:06;;;;;;;2.20;2.20;;;9.00;99.90;;;;;;4929145;29;20242;-68
2022/04/05 14:08:33;;;;;;;2.80;2.58;;;9.00;99.90;;;;;;4924225;29;20292;-69
2022/04/05 14:11:00;;;;;;;2.97;2.78;;;9.00;99.90;;;;;;4932779;29;20261;-69
2022/04/05 14:13:28;;;;;;;3.75;3.55;;;9.00;99.90;;;;;;4933548;29;20721;-68
2022/04/05 14:15:55;;;;;;;4.47;4.25;;;8.90;99.90;;;;;;4924742;29;20229;-69
2022/04/05 14:18:21;;;;;;;3.28;3.05;;;9.00;99.90;;;;;;4933562;29;20251;-69
2022/04/05 14:20:48;;;;;;;3.63;3.38;;;9.00;99.90;;;;;;4920999;29;20603;-70
2022/04/05 14:23:15;;;;;;;4.80;4.43;;;8.90;99.90;;;;;;4922905;29;20206;-69
2022/04/05 14:25:42;;;;;;;4.25;2.70;;;9.00;99.90;;;;;;4930992;29;20217;-69
2022/04/05 14:28:09;;;;;;;3.63;3.42;;;9.10;99.90;;;;;;4928870;29;20233;-69
2022/04/05 14:30:37;;;;;;;3.83;3.60;;;9.20;99.90;;;;;;4918081;29;20269;-69
2022/04/05 14:33:04;;;;;;;3.45;3.25;;;9.30;99.90;;;;;;4914821;29;20218;-69
2022/04/05 14:35:31;;;;;;;3.40;3.00;;;9.30;99.90;;;;;;4915045;29;20218;-69
2022/04/05 14:37:58;;;;;;;3.60;3.08;;;9.30;99.90;;;;;;4917525;29;20206;-69
2022/04/05 14:40:25;;;;;;;4.25;2.88;;;9.30;99.90;;;;;;4929904;29;20202;-69
2022/04/05 14:42:52;;;;;;;3.10;2.72;;;9.20;99.90;;;;;;4931273;29;20201;-69
2022/04/05 14:45:19;;;;;;;3.95;3.75;;;9.20;99.90;;;;;;4931871;29;20206;-69
2022/04/05 14:47:48;;;;;;;4.30;3.90;;;9.10;99.90;;;;;;4922527;29;20827;-69
2022/04/05 14:50:14;;;;;;;5.18;4.45;;;9.10;99.90;;;;;;4931772;29;20237;-69
2022/04/05 14:52:41;;;;;;;3.00;2.80;;;9.10;99.90;;;;;;4930459;29;20205;-69
2022/04/05 14:55:08;;;;;;;4.55;4.25;;;9.00;99.90;;;;;;4928118;29;20205;-69
2022/04/05 14:57:35;;;;;;;3.63;3.05;;;9.00;99.90;;;;;;4926668;29;20206;-69
2022/04/05 15:00:02;;;;;;;3.03;2.83;;;9.00;99.90;;;;;;4922934;29;20593;-69
2022/04/05 15:02:29;;;;;;;2.60;2.50;;;9.00;99.90;;;;;;4915743;29;20242;-69
2022/04/05 15:04:57;;;;;;;3.30;3.10;;;8.90;99.90;;;;;;4914948;29;20213;-68
2022/04/05 15:07:24;;;;;;;3.75;2.95;;;8.80;99.90;;;;;;4924534;29;20217;-68
2022/04/05 15:09:51;;;;;;;7.47;3.40;;;8.90;99.90;;;;;;4930368;29;20567;-69
2022/04/05 15:12:18;;;;;;;2.90;2.75;;;8.80;99.90;;;;;;4920561;29;20258;-69
2022/04/05 15:14:45;;;;;;;4.35;4.00;;;8.80;99.90;;;;;;4914673;29;20249;-70
2022/04/05 15:17:12;;;;;;;4.95;2.80;;;8.70;99.90;;;;;;4915309;29;20210;-69
2022/04/05 15:19:39;;;;;;;3.40;2.83;;;8.80;99.90;;;;;;4917423;29;20209;-69
2022/04/05 15:22:08;;;;;;;3.55;3.25;;;8.80;99.90;;;;;;4930324;29;20245;-69
2022/04/05 15:24:34;;;;;;;3.30;2.13;;;8.80;99.90;;;;;;4924329;29;20241;-69
2022/04/05 15:27:01;;;;;;;3.83;3.53;;;8.70;99.90;;;;;;4918494;29;20234;-69
2022/04/05 15:29:35;;;;;;;3.10;2.83;;;8.70;99.90;;;;;;4927983;29;20713;-69
2022/04/05 15:32:02;;;;;;;3.78;3.47;;;8.70;99.90;;;;;;4936104;29;20308;-68
2022/04/05 15:34:29;;;;;;;15.25;9.40;;;8.60;99.90;;;;;;4926399;29;20331;-69
2022/04/05 15:36:55;;;;;;;9.10;5.97;;;8.70;99.90;;;;;;4925956;29;20217;-68
2022/04/05 15:39:23;;;;;;;7.70;7.13;;;8.60;99.90;;;;;;4937339;29;20217;-69
2022/04/05 15:41:52;;;;;;;4.15;3.80;;;8.60;99.90;;;;;;4938549;28;20240;-69
2022/04/05 15:44:19;;;;;;;2.33;2.22;;;8.60;99.90;;;;;;4933848;29;20218;-68
2022/04/05 15:46:45;;;;;;;3.17;2.97;;;8.70;99.90;;;;;;4923827;29;20210;-68
2022/04/05 15:49:12;;;;;;;2.13;2.03;;;8.70;99.90;;;;;;4917184;29;20671;-69
2022/04/05 15:51:39;;;;;;;2.92;2.53;;;8.70;99.90;;;;;;4919140;29;20304;-69
2022/04/05 15:54:05;;;;;;;2.40;2.30;;;8.60;99.90;;;;;;4923266;29;20214;-68
2022/04/05 15:56:33;;;;;;;4.30;3.10;;;8.60;99.90;;;;;;4934739;29;20643;-68
2022/04/05 15:59:00;;;;;;;5.13;4.70;;;8.50;99.90;;;;;;4925148;29;20243;-68
2022/04/05 16:01:27;;;;;;;3.53;3.13;;;8.50;99.90;;;;;;4930805;29;20227;-69
2022/04/05 16:03:54;;;;;;;7.55;5.72;;;8.50;99.90;;;;;;4918862;29;20675;-69
2022/04/05 16:06:20;;;;;;;6.07;4.68;;;8.40;99.90;;;;;;4916609;29;20254;-70
2022/04/05 16:08:49;;;;;;;5.82;4.47;;;8.40;99.90;;;;;;4917271;29;20214;-69
2022/04/05 16:11:16;;;;;;;4.40;4.05;;;8.40;99.90;;;;;;4916511;29;20234;-69
2022/04/05 16:13:44;;;;;;;7.25;6.38;;;8.30;99.90;;;;;;4929512;29;20663;-68
2022/04/05 16:16:10;;;;;;;12.30;8.43;;;8.10;99.90;;;;;;4923293;28;20221;-68
2022/04/05 16:18:37;;;;;;;5.32;4.82;;;8.00;99.90;;;;;;4924193;29;20266;-69
2022/04/05 16:21:04;;;;;;;4.28;3.72;;;8.00;99.90;;;;;;4923363;29;20281;-69
2022/04/05 16:23:31;;;;;;;4.25;3.90;;;7.90;99.90;;;;;;4932251;29;20326;-69
2022/04/05 16:25:58;;;;;;;3.70;3.50;;;7.80;99.90;;;;;;4928597;29;20214;-69
2022/04/05 16:28:25;;;;;;;4.10;3.80;;;7.80;99.90;;;;;;4935311;29;20266;-70
2022/04/05 16:30:53;;;;;;;4.80;3.58;;;7.80;99.90;;;;;;4922172;29;20241;-69
2022/04/05 16:33:20;;;;;;;6.78;4.10;;;7.80;99.90;;;;;;4923401;29;20215;-69
2022/04/05 16:35:47;;;;;;;3.90;3.63;;;7.80;99.90;;;;;;4931905;29;20340;-69
2022/04/05 16:38:13;;;;;;;4.57;4.13;;;7.80;99.90;;;;;;4922414;29;24841;-69
2022/04/05 16:40:40;;;;;;;5.50;4.32;;;7.70;99.90;;;;;;4943312;28;20270;-69
2022/04/05 16:43:07;;;;;;;5.93;5.55;;;7.70;99.90;;;;;;4931248;29;20655;-70
2022/04/05 16:45:34;;;;;;;6.53;5.85;;;7.70;99.90;;;;;;4923316;29;20217;-69
2022/04/05 16:48:02;;;;;;;4.25;3.92;;;7.70;99.90;;;;;;4929462;29;20569;-69
2022/04/05 16:50:29;;;;;;;3.72;3.42;;;7.50;99.90;;;;;;4928567;29;20257;-69
2022/04/05 16:52:56;;;;;;;4.50;4.15;;;7.40;99.90;;;;;;4925022;29;20631;-69
2022/04/05 16:55:22;;;;;;;3.60;3.40;;;7.40;99.90;;;;;;4924647;29;20215;-69
2022/04/05 16:57:49;;;;;;;4.03;3.72;;;7.30;99.90;;;;;;4928387;29;20317;-69
2022/04/05 17:00:16;;;;;;;5.28;4.40;;;7.40;99.90;;;;;;4926780;29;20221;-69
2022/04/05 17:02:43;;;;;;;4.00;3.75;;;7.40;99.90;;;;;;4938479;29;20623;-69